Time;durP1;ratioP1;P1;durP2;ratioP2;P2;SDS_P1;SDS_P2;PMS_P1;PMS_P2;Temp;Humidity;BMP_temperature;BMP_pressure;BME280_temperature;BME280_humidity;BME280_pressure;Samples;Min_cycle;Max_cycle;Signal;HPM_P1;HPM_P2
2022/03/19 00:00:22;;;;;;;7.20;2.47;;;20.50;51.50;;;;;;4993829;28;20061;-60
2022/03/19 00:02:48;;;;;;;10.35;2.10;;;20.50;51.50;;;;;;4993243;28;20050;-60
2022/03/19 00:05:13;;;;;;;6.88;2.58;;;20.50;51.40;;;;;;4994052;28;20493;-60
2022/03/19 00:07:40;;;;;;;7.85;2.80;;;20.40;51.40;;;;;;4994079;28;20506;-60
2022/03/19 00:10:08;;;;;;;6.25;2.83;;;20.40;51.40;;;;;;4992089;28;20050;-60
2022/03/19 00:12:39;;;;;;;8.73;3.28;;;20.40;51.40;;;;;;4994185;28;20096;-60
2022/03/19 00:15:05;;;;;;;9.63;2.88;;;20.40;51.40;;;;;;4992987;28;20544;-60
2022/03/19 00:17:31;;;;;;;6.95;2.30;;;20.40;51.40;;;;;;4993342;28;20470;-60
2022/03/19 00:19:56;;;;;;;6.45;2.55;;;20.40;51.40;;;;;;4994041;28;20056;-60
2022/03/19 00:22:22;;;;;;;8.55;2.70;;;20.30;51.30;;;;;;4993635;28;20042;-60
2022/03/19 00:24:47;;;;;;;6.65;2.63;;;20.30;51.20;;;;;;4993324;28;20046;-60
2022/03/19 00:27:13;;;;;;;7.82;2.80;;;20.30;51.20;;;;;;4993609;28;20100;-60
2022/03/19 00:29:38;;;;;;;5.80;2.25;;;20.30;51.20;;;;;;4993913;28;20362;-60
2022/03/19 00:32:04;;;;;;;9.55;2.47;;;20.30;51.20;;;;;;4992966;28;20089;-60
2022/03/19 00:34:30;;;;;;;6.38;2.33;;;20.30;51.20;;;;;;4993504;28;20042;-60
2022/03/19 00:36:56;;;;;;;6.15;2.53;;;20.30;51.20;;;;;;4993800;28;20050;-60
2022/03/19 00:39:21;;;;;;;7.35;2.25;;;20.30;51.10;;;;;;4992382;28;20054;-60
2022/03/19 00:41:47;;;;;;;7.53;2.25;;;20.20;51.10;;;;;;4993593;28;20061;-60
2022/03/19 00:44:12;;;;;;;7.38;2.28;;;20.30;51.10;;;;;;4992371;28;20521;-60
2022/03/19 00:46:38;;;;;;;7.45;2.28;;;20.20;51.00;;;;;;4993552;28;20061;-60
2022/03/19 00:49:03;;;;;;;5.85;2.10;;;20.20;51.70;;;;;;4993599;28;20046;-60
2022/03/19 00:51:29;;;;;;;8.40;2.05;;;20.20;51.00;;;;;;4992775;28;20038;-60
2022/03/19 00:53:54;;;;;;;6.10;2.60;;;20.20;51.00;;;;;;4993580;28;20050;-60
2022/03/19 00:56:20;;;;;;;6.30;1.80;;;20.20;51.00;;;;;;4993154;28;20054;-60
2022/03/19 00:58:46;;;;;;;5.57;1.85;;;20.20;51.00;;;;;;4992053;28;20073;-60
2022/03/19 01:01:11;;;;;;;6.55;2.17;;;20.20;51.00;;;;;;4993102;28;20121;-60
2022/03/19 01:03:37;;;;;;;6.35;1.80;;;20.20;50.90;;;;;;4993318;28;20133;-60
2022/03/19 01:06:02;;;;;;;5.97;1.95;;;20.20;51.60;;;;;;4991198;28;20494;-60
2022/03/19 01:08:28;;;;;;;8.45;2.03;;;20.20;50.90;;;;;;4993047;28;20046;-60
2022/03/19 01:10:53;;;;;;;7.93;2.08;;;20.10;50.90;;;;;;4993219;28;20053;-60
2022/03/19 01:13:19;;;;;;;6.25;2.13;;;20.10;50.80;;;;;;4991783;28;20038;-60
2022/03/19 01:15:44;;;;;;;4.93;1.67;;;20.10;50.80;;;;;;4992691;28;20049;-60
2022/03/19 01:18:10;;;;;;;5.30;1.92;;;20.10;50.80;;;;;;4992906;28;20042;-61
2022/03/19 01:20:35;;;;;;;4.78;2.20;;;20.10;50.70;;;;;;4992380;28;20109;-60
2022/03/19 01:23:01;;;;;;;6.85;1.83;;;20.10;50.70;;;;;;4992983;28;20406;-60
2022/03/19 01:25:26;;;;;;;6.78;1.98;;;20.10;50.70;;;;;;4994817;28;20054;-60
2022/03/19 01:27:52;;;;;;;6.55;1.98;;;20.10;50.60;;;;;;4996173;28;20042;-60
2022/03/19 01:30:19;;;;;;;5.85;1.75;;;20.10;50.60;;;;;;4996969;28;20039;-60
2022/03/19 01:32:46;;;;;;;7.82;2.50;;;20.10;50.60;;;;;;4997083;28;20096;-60
2022/03/19 01:35:12;;;;;;;6.03;1.50;;;20.00;50.60;;;;;;4995698;28;20089;-60
2022/03/19 01:37:38;;;;;;;4.88;1.92;;;20.10;50.60;;;;;;4997067;28;20078;-60
2022/03/19 01:40:04;;;;;;;7.95;2.28;;;20.00;50.60;;;;;;4996086;28;20109;-60
2022/03/19 01:42:34;;;;;;;4.80;1.80;;;20.00;50.60;;;;;;4996083;28;20053;-60
2022/03/19 01:45:00;;;;;;;6.32;1.55;;;20.00;50.50;;;;;;4996589;28;20494;-60
2022/03/19 01:47:26;;;;;;;5.03;2.00;;;20.00;50.50;;;;;;4995683;28;20078;-60
2022/03/19 01:49:52;;;;;;;8.07;1.63;;;20.00;50.40;;;;;;4996620;28;20409;-60
2022/03/19 01:52:17;;;;;;;3.78;1.27;;;20.00;50.40;;;;;;4996350;28;20504;-60
2022/03/19 01:54:44;;;;;;;4.97;1.80;;;20.00;50.40;;;;;;4995784;28;20058;-60
2022/03/19 01:57:11;;;;;;;5.97;1.70;;;20.00;50.40;;;;;;4996246;28;20057;-60
2022/03/19 01:59:37;;;;;;;5.72;1.80;;;19.90;50.30;;;;;;4995484;28;20398;-60
2022/03/19 02:02:04;;;;;;;7.10;2.10;;;20.00;50.40;;;;;;4995804;28;20041;-60
2022/03/19 02:04:29;;;;;;;4.90;1.50;;;20.00;50.30;;;;;;4996630;28;20042;-60
2022/03/19 02:06:55;;;;;;;6.20;1.85;;;19.90;50.30;;;;;;4996560;28;20058;-60
2022/03/19 02:09:20;;;;;;;4.28;1.20;;;19.90;50.30;;;;;;4994101;28;20039;-60
2022/03/19 02:11:46;;;;;;;3.92;1.38;;;19.90;50.30;;;;;;4996191;28;20042;-60
2022/03/19 02:14:12;;;;;;;5.90;1.90;;;19.90;50.30;;;;;;4996294;28;20034;-60
2022/03/19 02:16:38;;;;;;;6.45;1.75;;;19.90;50.30;;;;;;4995343;28;20656;-60
2022/03/19 02:19:03;;;;;;;6.88;1.90;;;19.90;50.20;;;;;;4996181;28;20046;-60
2022/03/19 02:21:48;;;;;;;7.43;1.73;;;19.90;50.20;;;;;;4996121;28;20053;-60
2022/03/19 02:26:58;;;;;;;4.38;1.50;;;19.90;50.20;;;;;;4996206;28;20141;-60
2022/03/19 02:29:24;;;;;;;8.98;2.03;;;19.90;50.20;;;;;;4995895;28;20121;-60
2022/03/19 02:31:54;;;;;;;5.93;1.45;;;19.80;50.10;;;;;;4995416;28;20176;-60
2022/03/19 02:34:20;;;;;;;5.50;1.20;;;19.90;50.10;;;;;;4995829;28;20050;-60
2022/03/19 02:36:45;;;;;;;5.85;1.50;;;19.90;50.10;;;;;;4994165;28;20057;-60
2022/03/19 02:39:28;;;;;;;4.90;1.58;;;19.80;50.00;;;;;;4995103;28;20054;-60
2022/03/19 02:41:54;;;;;;;5.65;1.40;;;19.90;50.10;;;;;;4995507;28;20557;-60
2022/03/19 02:44:20;;;;;;;6.10;1.45;;;19.80;50.00;;;;;;4994617;28;20038;-60
2022/03/19 02:46:54;;;;;;;4.75;1.40;;;19.80;50.00;;;;;;4995623;28;20100;-60
2022/03/19 02:49:20;;;;;;;4.57;1.35;;;19.80;49.90;;;;;;4995281;28;20174;-60
2022/03/19 02:51:48;;;;;;;4.13;1.48;;;19.90;50.00;;;;;;4994599;28;20125;-60
2022/03/19 02:54:15;;;;;;;4.05;1.20;;;19.90;49.90;;;;;;4995332;28;20057;-60
2022/03/19 02:56:42;;;;;;;5.13;1.50;;;19.90;49.90;;;;;;4995514;28;20085;-60
2022/03/19 02:59:17;;;;;;;4.53;1.38;;;19.90;50.00;;;;;;4994432;28;20042;-60
2022/03/19 03:01:44;;;;;;;4.68;1.30;;;19.90;50.00;;;;;;4995279;28;20046;-60
2022/03/19 03:04:09;;;;;;;3.78;1.13;;;19.90;49.90;;;;;;4994719;28;20494;-60
2022/03/19 03:06:36;;;;;;;5.55;1.30;;;19.90;49.90;;;;;;4993786;28;20434;-60
2022/03/19 03:09:02;;;;;;;5.63;1.50;;;19.90;49.90;;;;;;4995472;28;20115;-60
2022/03/19 03:11:28;;;;;;;5.47;1.35;;;19.90;49.90;;;;;;4995136;28;20605;-60
2022/03/19 03:13:53;;;;;;;4.93;1.20;;;20.00;49.90;;;;;;4994341;28;20140;-60
2022/03/19 03:16:19;;;;;;;3.08;0.90;;;20.00;49.90;;;;;;4994764;28;20129;-60
2022/03/19 03:18:44;;;;;;;5.13;1.33;;;20.00;49.80;;;;;;4995151;28;20046;-60
2022/03/19 03:21:10;;;;;;;5.38;1.33;;;20.00;49.80;;;;;;4993405;28;20177;-60
2022/03/19 03:23:35;;;;;;;3.85;1.30;;;20.00;49.70;;;;;;4995065;28;20439;-60
2022/03/19 03:26:01;;;;;;;5.90;1.40;;;20.00;49.70;;;;;;4993277;28;20129;-60
2022/03/19 03:28:27;;;;;;;5.45;1.10;;;20.00;49.70;;;;;;4994353;28;20072;-61
2022/03/19 03:30:53;;;;;;;3.63;1.17;;;20.00;49.70;;;;;;4995057;28;20054;-60
2022/03/19 03:33:18;;;;;;;5.07;1.20;;;20.00;49.60;;;;;;4993700;28;20049;-60
2022/03/19 03:35:44;;;;;;;5.55;1.40;;;20.00;49.70;;;;;;4993566;28;20050;-60
2022/03/19 03:38:09;;;;;;;3.03;1.00;;;20.00;49.60;;;;;;4994483;28;20057;-60
2022/03/19 03:40:35;;;;;;;3.72;1.10;;;20.00;49.60;;;;;;4993704;28;20054;-60
2022/03/19 03:43:00;;;;;;;4.32;1.30;;;20.10;49.70;;;;;;4994798;28;20077;-60
2022/03/19 03:45:29;;;;;;;3.55;1.00;;;20.10;49.60;;;;;;4994065;28;20571;-60
2022/03/19 03:47:55;;;;;;;3.03;1.00;;;20.10;50.30;;;;;;4993189;28;20046;-60
2022/03/19 03:50:21;;;;;;;3.75;1.27;;;20.10;49.60;;;;;;4994058;28;20046;-60
2022/03/19 03:52:46;;;;;;;4.85;1.20;;;20.10;49.50;;;;;;4994489;28;20457;-60
2022/03/19 03:55:12;;;;;;;3.28;0.90;;;20.10;49.50;;;;;;4993553;28;20486;-60
2022/03/19 03:57:38;;;;;;;4.15;1.35;;;20.10;49.50;;;;;;4993248;28;20046;-60
2022/03/19 04:00:04;;;;;;;4.07;1.50;;;20.20;49.60;;;;;;4994056;28;20054;-60
2022/03/19 04:02:29;;;;;;;3.67;1.20;;;20.10;49.50;;;;;;4993775;28;20034;-60
2022/03/19 04:04:55;;;;;;;4.15;1.17;;;20.10;49.40;;;;;;4993681;28;20490;-60
2022/03/19 04:07:21;;;;;;;3.47;1.08;;;20.20;49.50;;;;;;4993994;28;20074;-60
2022/03/19 04:09:47;;;;;;;5.57;1.20;;;20.20;49.40;;;;;;4993335;28;20498;-60
2022/03/19 04:12:12;;;;;;;4.22;1.27;;;20.20;49.40;;;;;;4993927;28;20053;-60
2022/03/19 04:14:38;;;;;;;4.22;0.90;;;20.20;49.50;;;;;;4994219;28;20053;-60
2022/03/19 04:17:04;;;;;;;4.15;1.10;;;20.20;49.40;;;;;;4993119;28;20038;-60
2022/03/19 04:19:30;;;;;;;4.07;1.20;;;20.20;49.30;;;;;;4994244;28;20056;-60
2022/03/19 04:21:56;;;;;;;3.97;0.95;;;20.20;49.30;;;;;;4994090;28;20050;-60
2022/03/19 04:24:21;;;;;;;4.60;1.00;;;20.20;49.30;;;;;;4993008;28;20126;-60
2022/03/19 04:26:47;;;;;;;4.10;1.33;;;20.20;49.30;;;;;;4994034;28;20042;-60
2022/03/19 04:29:12;;;;;;;3.53;0.90;;;20.20;49.30;;;;;;4992507;28;20047;-60
2022/03/19 04:31:38;;;;;;;3.90;1.27;;;20.20;49.20;;;;;;4993882;28;20480;-60
2022/03/19 04:34:03;;;;;;;3.53;1.00;;;20.20;49.20;;;;;;4993454;28;20042;-60
2022/03/19 04:36:38;;;;;;;3.70;1.05;;;20.20;49.20;;;;;;4992878;28;20050;-60
2022/03/19 04:39:04;;;;;;;4.10;1.20;;;20.20;49.20;;;;;;4993153;28;20474;-60
2022/03/19 04:41:30;;;;;;;3.42;1.20;;;20.20;49.10;;;;;;4993743;28;20050;-60
2022/03/19 04:43:55;;;;;;;4.88;1.10;;;20.20;49.10;;;;;;4992934;28;20050;-60
2022/03/19 04:46:21;;;;;;;3.58;1.10;;;20.20;49.10;;;;;;4993410;28;20105;-60
2022/03/19 04:48:47;;;;;;;4.18;1.10;;;20.20;49.00;;;;;;4993570;28;20125;-60
2022/03/19 04:51:14;;;;;;;3.25;1.05;;;20.30;49.10;;;;;;4992373;28;20041;-60
2022/03/19 04:53:40;;;;;;;3.97;1.10;;;20.30;49.00;;;;;;4993377;28;20039;-60
2022/03/19 04:56:06;;;;;;;2.88;1.00;;;20.30;49.00;;;;;;4992127;28;20046;-60
2022/03/19 04:58:32;;;;;;;5.38;1.20;;;20.30;48.90;;;;;;4992751;28;20046;-60
2022/03/19 05:00:58;;;;;;;3.00;0.85;;;20.30;48.90;;;;;;4991746;28;20081;-60
2022/03/19 05:03:23;;;;;;;3.00;0.90;;;20.30;48.90;;;;;;4991804;28;20050;-60
2022/03/19 05:05:49;;;;;;;4.72;1.00;;;20.30;48.90;;;;;;4991046;28;20054;-60
2022/03/19 05:08:14;;;;;;;3.45;1.10;;;20.30;48.80;;;;;;4993090;28;20532;-60
2022/03/19 05:13:24;;;;;;;3.83;1.00;;;20.30;48.80;;;;;;4992386;28;20145;-60
2022/03/19 05:15:49;;;;;;;4.10;0.93;;;20.30;48.80;;;;;;4993334;28;20089;-60
2022/03/19 05:18:15;;;;;;;4.75;0.93;;;20.30;48.80;;;;;;4992680;28;20053;-60
2022/03/19 05:20:40;;;;;;;4.90;1.00;;;20.30;48.80;;;;;;4992184;28;20478;-60
2022/03/19 05:23:06;;;;;;;3.90;1.30;;;20.30;48.70;;;;;;4993051;28;20098;-60
2022/03/19 05:25:32;;;;;;;4.13;0.90;;;20.30;48.60;;;;;;4992532;28;20481;-60
2022/03/19 05:27:57;;;;;;;4.53;1.38;;;20.30;48.60;;;;;;4993427;28;20046;-60
2022/03/19 05:30:23;;;;;;;2.42;0.90;;;20.30;48.60;;;;;;4992997;28;20050;-60
2022/03/19 05:32:49;;;;;;;3.72;0.90;;;20.30;48.50;;;;;;4992452;28;20488;-60
2022/03/19 05:35:15;;;;;;;4.10;1.15;;;20.30;48.50;;;;;;4992553;28;20141;-60
2022/03/19 05:37:41;;;;;;;2.92;1.00;;;20.30;48.50;;;;;;4991617;28;20350;-60
2022/03/19 05:40:07;;;;;;;2.17;0.80;;;20.30;48.50;;;;;;4991541;28;20486;-60
2022/03/19 05:42:33;;;;;;;4.03;1.13;;;20.30;48.50;;;;;;4993342;28;20059;-60
2022/03/19 05:44:59;;;;;;;2.88;0.95;;;20.30;48.50;;;;;;4993169;28;20049;-60
2022/03/19 05:47:24;;;;;;;3.80;0.95;;;20.30;48.40;;;;;;4991891;28;20047;-60
2022/03/19 05:49:50;;;;;;;4.00;1.10;;;20.30;48.30;;;;;;4992999;28;20379;-60
2022/03/19 05:52:16;;;;;;;3.88;1.05;;;20.30;48.30;;;;;;4992504;28;20510;-60
2022/03/19 05:54:42;;;;;;;3.50;1.00;;;20.30;48.30;;;;;;4992210;28;20458;-61
2022/03/19 05:57:08;;;;;;;2.38;0.65;;;20.30;48.30;;;;;;4992166;28;20433;-60
2022/03/19 05:59:33;;;;;;;4.43;1.10;;;20.30;48.30;;;;;;4992918;28;20039;-60
2022/03/19 06:01:59;;;;;;;3.08;1.00;;;20.30;48.30;;;;;;4992211;28;20038;-60
2022/03/19 06:04:25;;;;;;;5.00;1.00;;;20.30;48.20;;;;;;4992473;28;20553;-60
2022/03/19 06:06:50;;;;;;;4.07;1.10;;;20.30;48.20;;;;;;4992876;28;20065;-61
2022/03/19 06:09:16;;;;;;;2.83;0.90;;;20.30;48.20;;;;;;4991533;28;20042;-60
2022/03/19 06:11:43;;;;;;;3.70;0.90;;;20.30;48.20;;;;;;4992645;28;20073;-60
2022/03/19 06:14:08;;;;;;;3.63;1.00;;;20.30;48.20;;;;;;4995307;28;20490;-60
2022/03/19 06:16:34;;;;;;;5.07;1.00;;;20.30;48.20;;;;;;4995372;28;20053;-60
2022/03/19 06:18:59;;;;;;;4.85;1.20;;;20.30;48.20;;;;;;4996193;28;20482;-60
2022/03/19 06:21:25;;;;;;;5.20;0.93;;;20.30;48.20;;;;;;4995608;28;20124;-60
2022/03/19 06:23:51;;;;;;;4.53;1.20;;;20.30;48.30;;;;;;4995460;28;20477;-60
2022/03/19 06:26:18;;;;;;;5.00;1.02;;;20.30;48.30;;;;;;4995713;28;20038;-60
2022/03/19 06:28:43;;;;;;;3.63;0.85;;;20.30;48.20;;;;;;4995457;28;20047;-60
2022/03/19 06:31:09;;;;;;;5.68;1.15;;;20.30;48.30;;;;;;4995467;28;20049;-60
2022/03/19 06:33:35;;;;;;;3.63;1.00;;;20.30;48.20;;;;;;4996121;28;20130;-60
2022/03/19 06:38:44;;;;;;;4.18;1.00;;;20.30;48.20;;;;;;4995766;28;20050;-60
2022/03/19 06:41:10;;;;;;;4.15;1.00;;;20.30;48.20;;;;;;4995037;28;20050;-60
2022/03/19 06:43:36;;;;;;;5.50;0.90;;;20.40;48.30;;;;;;4994822;28;20054;-60
2022/03/19 06:46:01;;;;;;;3.58;1.30;;;20.40;48.30;;;;;;4995795;28;20101;-60
2022/03/19 06:48:27;;;;;;;3.85;0.90;;;20.40;48.40;;;;;;4995529;28;20081;-60
2022/03/19 06:50:55;;;;;;;2.13;0.70;;;20.40;48.50;;;;;;4994537;28;20129;-60
2022/03/19 06:53:22;;;;;;;4.05;0.80;;;20.40;48.50;;;;;;4995402;28;20053;-61
2022/03/19 06:55:47;;;;;;;5.32;0.98;;;20.40;48.50;;;;;;4995493;28;20042;-60
2022/03/19 06:58:13;;;;;;;5.90;1.05;;;20.40;48.60;;;;;;5003710;28;20389;-60
2022/03/19 07:00:40;;;;;;;2.92;1.13;;;20.40;48.80;;;;;;5014718;28;20050;-60
2022/03/19 07:03:05;;;;;;;4.10;1.15;;;20.50;48.90;;;;;;5014718;28;20046;-60
2022/03/19 07:05:31;;;;;;;7.10;1.30;;;20.50;49.00;;;;;;5013773;28;20046;-60
2022/03/19 07:07:57;;;;;;;5.88;1.50;;;20.50;48.90;;;;;;5015072;28;20497;-60
2022/03/19 07:10:23;;;;;;;5.55;1.70;;;20.50;48.80;;;;;;5013765;28;20049;-60
2022/03/19 07:12:52;;;;;;;11.50;2.20;;;20.50;48.80;;;;;;5013955;28;20053;-60
2022/03/19 07:15:19;;;;;;;9.85;1.83;;;20.60;48.90;;;;;;5014357;28;20883;-60
2022/03/19 07:17:45;;;;;;;8.18;1.85;;;20.60;48.90;;;;;;5014507;28;20046;-60
2022/03/19 07:20:13;;;;;;;8.57;1.80;;;20.60;48.90;;;;;;5013647;28;20488;-60
2022/03/19 07:22:58;;;;;;;6.00;1.83;;;20.60;48.90;;;;;;5014439;28;20033;-59
2022/03/19 07:25:25;;;;;;;8.25;1.90;;;20.60;49.00;;;;;;5002704;28;20058;-60
2022/03/19 07:27:52;;;;;;;6.90;1.92;;;20.70;49.00;;;;;;4994971;28;20533;-60
2022/03/19 07:30:18;;;;;;;9.57;2.08;;;20.70;49.00;;;;;;5003593;28;20077;-60
2022/03/19 07:32:43;;;;;;;7.75;1.88;;;20.70;49.10;;;;;;5013628;28;20080;-61
2022/03/19 07:35:09;;;;;;;5.38;1.70;;;20.70;49.20;;;;;;5013823;28;20111;-61
2022/03/19 07:37:35;;;;;;;4.82;1.45;;;20.80;49.30;;;;;;5014363;28;20180;-60
2022/03/19 07:40:01;;;;;;;6.93;1.80;;;20.80;49.40;;;;;;5013495;28;20085;-60
2022/03/19 07:42:26;;;;;;;7.90;1.42;;;20.80;49.60;;;;;;5013999;28;20444;-60
2022/03/19 07:44:52;;;;;;;7.40;1.90;;;20.80;49.60;;;;;;5014416;28;20038;-60
2022/03/19 07:47:18;;;;;;;4.97;1.50;;;20.80;49.60;;;;;;5013312;28;20385;-60
2022/03/19 07:49:43;;;;;;;4.93;1.73;;;20.80;49.60;;;;;;5014111;28;20489;-60
2022/03/19 07:52:09;;;;;;;5.80;1.83;;;20.90;49.80;;;;;;5013536;28;20045;-61
2022/03/19 07:54:36;;;;;;;6.88;2.50;;;20.90;49.80;;;;;;5013391;28;20046;-61
2022/03/19 07:57:02;;;;;;;4.05;1.27;;;20.90;49.80;;;;;;5013774;28;20056;-60
2022/03/19 07:59:28;;;;;;;6.05;1.65;;;20.90;49.80;;;;;;5007161;28;20061;-60
2022/03/19 08:01:54;;;;;;;8.10;1.65;;;20.90;49.80;;;;;;4993802;28;20402;-60
2022/03/19 08:04:19;;;;;;;6.90;1.50;;;21.00;50.00;;;;;;4993849;28;20081;-60
2022/03/19 08:06:45;;;;;;;5.22;1.58;;;21.00;50.00;;;;;;4993863;28;20053;-60
2022/03/19 08:09:10;;;;;;;6.20;1.55;;;21.00;50.10;;;;;;4993216;28;20049;-60
2022/03/19 08:11:36;;;;;;;6.93;1.50;;;21.00;49.90;;;;;;4994011;28;20051;-60
2022/03/19 08:14:03;;;;;;;5.65;1.30;;;21.10;49.80;;;;;;4992907;28;20045;-60
2022/03/19 08:16:28;;;;;;;7.45;1.40;;;21.10;49.80;;;;;;4993343;28;20051;-60
2022/03/19 08:18:54;;;;;;;5.78;1.40;;;21.10;49.70;;;;;;4994129;28;20052;-60
2022/03/19 08:21:19;;;;;;;5.40;1.45;;;21.10;49.70;;;;;;4992989;28;20121;-60
2022/03/19 08:23:48;;;;;;;5.07;2.00;;;21.10;49.60;;;;;;4994163;28;20446;-60
2022/03/19 08:26:14;;;;;;;6.40;1.10;;;21.20;49.70;;;;;;4993837;28;20074;-60
2022/03/19 08:28:39;;;;;;;6.55;1.55;;;21.20;49.70;;;;;;4993072;28;20077;-60
2022/03/19 08:31:05;;;;;;;6.43;1.65;;;21.20;49.70;;;;;;4993313;28;20445;-59
2022/03/19 08:33:31;;;;;;;5.20;1.35;;;21.20;49.80;;;;;;4994009;28;20088;-59
2022/03/19 08:35:56;;;;;;;4.68;1.48;;;21.20;49.80;;;;;;4992434;28;20502;-60
2022/03/19 08:41:06;;;;;;;4.88;1.42;;;21.30;49.80;;;;;;5012832;28;20513;-60
2022/03/19 08:43:31;;;;;;;6.15;1.58;;;21.30;49.80;;;;;;5012519;28;20066;-59
2022/03/19 08:45:57;;;;;;;5.10;1.70;;;21.30;49.70;;;;;;5013605;28;20389;-59
2022/03/19 08:48:22;;;;;;;5.47;1.55;;;21.30;49.80;;;;;;4993961;28;20039;-60
2022/03/19 08:50:48;;;;;;;5.32;1.50;;;21.30;49.70;;;;;;4972916;28;20047;-60
2022/03/19 08:53:14;;;;;;;4.60;1.23;;;21.30;49.70;;;;;;4989408;28;20045;-61
2022/03/19 08:55:39;;;;;;;6.43;1.50;;;21.30;49.70;;;;;;4993436;28;20042;-60
2022/03/19 08:58:05;;;;;;;7.47;1.40;;;21.30;49.60;;;;;;4991432;28;20046;-60
2022/03/19 09:00:31;;;;;;;2.88;1.00;;;21.40;49.60;;;;;;4993002;28;20046;-60
2022/03/19 09:02:56;;;;;;;4.95;1.60;;;21.40;49.40;;;;;;4992758;28;20554;-59
2022/03/19 09:05:22;;;;;;;4.07;1.20;;;21.40;49.30;;;;;;4991756;28;20207;-59
2022/03/19 09:07:48;;;;;;;5.03;1.40;;;21.40;49.10;;;;;;4992784;28;20100;-61
2022/03/19 09:10:14;;;;;;;5.78;1.40;;;21.40;49.10;;;;;;4992621;28;20039;-61
2022/03/19 09:12:39;;;;;;;5.45;1.30;;;21.40;49.10;;;;;;4992050;28;20367;-60
2022/03/19 09:15:09;;;;;;;5.45;1.17;;;21.40;49.00;;;;;;4992556;28;20082;-61
2022/03/19 09:17:34;;;;;;;4.72;1.30;;;21.40;49.10;;;;;;4990872;28;20118;-60
2022/03/19 09:20:00;;;;;;;3.95;1.42;;;21.40;49.10;;;;;;4992698;28;20205;-60
2022/03/19 09:22:26;;;;;;;5.07;1.15;;;21.40;49.10;;;;;;4992531;28;20051;-60
2022/03/19 09:24:51;;;;;;;3.38;1.10;;;21.40;49.10;;;;;;4992119;28;20042;-59
2022/03/19 09:27:17;;;;;;;4.97;1.10;;;21.40;49.10;;;;;;4992255;28;20050;-59
2022/03/19 09:29:42;;;;;;;4.63;1.27;;;21.40;49.10;;;;;;4992907;28;20050;-60
2022/03/19 09:32:10;;;;;;;4.25;1.30;;;21.40;49.10;;;;;;4991942;28;20093;-60
2022/03/19 09:34:35;;;;;;;6.00;1.30;;;21.50;49.90;;;;;;4993121;28;20043;-60
2022/03/19 09:37:01;;;;;;;5.88;1.77;;;21.50;49.20;;;;;;4992735;28;20042;-60
2022/03/19 09:39:27;;;;;;;4.53;0.98;;;21.50;49.20;;;;;;4991502;28;20069;-60
2022/03/19 09:41:55;;;;;;;6.10;1.20;;;21.50;49.20;;;;;;4992247;28;20086;-60
2022/03/19 09:44:24;;;;;;;6.65;1.17;;;21.50;49.10;;;;;;4992613;28;20045;-61
2022/03/19 09:46:50;;;;;;;3.92;1.02;;;21.50;49.10;;;;;;4995123;28;20047;-61
2022/03/19 09:49:15;;;;;;;5.47;1.10;;;21.50;49.10;;;;;;4997765;28;20069;-60
2022/03/19 09:51:44;;;;;;;4.65;1.05;;;21.50;49.10;;;;;;4997218;28;20050;-62
2022/03/19 09:54:10;;;;;;;3.33;0.90;;;21.50;49.30;;;;;;4994389;28;20102;-61
2022/03/19 09:56:36;;;;;;;5.53;1.40;;;21.50;49.20;;;;;;4996407;28;20625;-61
2022/03/19 09:59:02;;;;;;;4.18;1.00;;;21.50;49.00;;;;;;4996022;28;20089;-60
2022/03/19 10:01:30;;;;;;;4.55;1.25;;;21.50;48.90;;;;;;4992645;28;20097;-60
2022/03/19 10:04:03;;;;;;;5.40;1.02;;;21.50;48.80;;;;;;5003268;28;20037;-60
2022/03/19 10:09:20;;;;;;;3.92;0.93;;;21.50;48.70;;;;;;5000433;28;20034;-60
2022/03/19 10:11:50;;;;;;;3.42;1.00;;;21.50;48.70;;;;;;4993838;28;20038;-60
2022/03/19 10:14:22;;;;;;;4.55;1.10;;;21.50;48.70;;;;;;4994917;28;20042;-60
2022/03/19 10:16:51;;;;;;;2.92;1.13;;;21.50;48.60;;;;;;4993766;28;20046;-61
2022/03/19 10:19:17;;;;;;;4.82;1.10;;;21.50;48.40;;;;;;4995546;28;20050;-60
2022/03/19 10:21:44;;;;;;;5.10;1.00;;;21.50;48.10;;;;;;5001966;28;20043;-60
2022/03/19 10:24:26;;;;;;;5.10;1.35;;;21.40;47.60;;;;;;4995651;28;20049;-60
2022/03/19 10:26:51;;;;;;;5.45;1.45;;;21.50;47.20;;;;;;4996207;28;20437;-61
2022/03/19 10:29:22;;;;;;;4.25;1.30;;;21.40;47.10;;;;;;4994167;28;20026;-60
2022/03/19 10:31:48;;;;;;;6.50;1.42;;;21.40;46.70;;;;;;5006902;28;20046;-61
2022/03/19 10:34:13;;;;;;;5.68;1.35;;;21.40;46.40;;;;;;4995821;28;20038;-60
2022/03/19 10:36:40;;;;;;;4.65;1.33;;;21.40;46.10;;;;;;4995101;28;20406;-60
2022/03/19 10:39:06;;;;;;;6.47;1.35;;;21.40;46.00;;;;;;4995739;28;20046;-61
2022/03/19 10:41:35;;;;;;;6.07;1.48;;;21.40;46.10;;;;;;4995987;28;20043;-61
2022/03/19 10:44:18;;;;;;;5.25;1.05;;;21.30;46.30;;;;;;4995279;28;20057;-61
2022/03/19 10:46:50;;;;;;;6.20;1.17;;;21.30;46.60;;;;;;4994558;28;20453;-61
2022/03/19 10:49:17;;;;;;;5.50;1.33;;;21.30;46.60;;;;;;4994237;28;20042;-61
2022/03/19 10:51:44;;;;;;;4.85;0.93;;;21.30;46.70;;;;;;4995270;28;20065;-60
2022/03/19 10:54:11;;;;;;;7.55;1.10;;;21.40;46.80;;;;;;4994995;28;20084;-61
2022/03/19 10:56:37;;;;;;;3.95;1.08;;;21.40;46.70;;;;;;4993406;28;20445;-61
2022/03/19 10:59:02;;;;;;;5.50;1.10;;;21.30;46.60;;;;;;4994833;28;20042;-61
2022/03/19 11:01:28;;;;;;;5.93;1.13;;;21.40;46.50;;;;;;4989742;28;20078;-60
2022/03/19 11:03:53;;;;;;;4.00;1.05;;;21.40;46.50;;;;;;4994359;28;20043;-60
2022/03/19 11:06:19;;;;;;;5.40;1.20;;;21.40;47.20;;;;;;4993176;28;20470;-60
2022/03/19 11:08:46;;;;;;;4.00;1.02;;;21.40;46.70;;;;;;4994876;28;20125;-61
2022/03/19 11:11:29;;;;;;;4.03;0.90;;;21.40;46.50;;;;;;4994233;28;20039;-60
2022/03/19 11:13:55;;;;;;;4.85;1.00;;;21.40;46.50;;;;;;5001927;28;20057;-60
2022/03/19 11:16:20;;;;;;;3.08;0.90;;;21.40;46.60;;;;;;5029604;28;20042;-60
2022/03/19 11:18:47;;;;;;;3.63;0.90;;;21.40;46.60;;;;;;5029448;28;20041;-60
2022/03/19 11:21:14;;;;;;;4.75;1.00;;;21.40;46.50;;;;;;5029664;28;20112;-60
2022/03/19 11:24:22;;;;;;;3.17;0.80;;;21.40;46.50;;;;;;5029640;28;20137;-60
2022/03/19 11:26:48;;;;;;;4.65;0.90;;;21.40;46.50;;;;;;4996518;28;20046;-60
2022/03/19 11:29:13;;;;;;;5.30;0.90;;;21.50;46.60;;;;;;4994305;28;20192;-60
2022/03/19 11:31:39;;;;;;;5.03;0.98;;;21.40;46.60;;;;;;4992312;28;20049;-61
2022/03/19 11:34:17;;;;;;;2.97;0.82;;;21.40;46.60;;;;;;4994519;28;20148;-60
2022/03/19 11:36:58;;;;;;;5.45;0.55;;;21.40;46.60;;;;;;4999584;28;20464;-60
2022/03/19 11:39:24;;;;;;;4.78;1.05;;;21.40;46.50;;;;;;5013055;28;20096;-60
2022/03/19 11:41:49;;;;;;;3.35;0.80;;;21.50;46.60;;;;;;5014428;28;20042;-60
2022/03/19 11:44:23;;;;;;;5.82;0.82;;;21.40;46.50;;;;;;5013726;28;20042;-61
2022/03/19 11:47:03;;;;;;;3.47;0.80;;;21.50;46.50;;;;;;5013316;28;20587;-60
2022/03/19 11:49:48;;;;;;;3.35;0.90;;;21.50;46.50;;;;;;5014485;28;20046;-60
2022/03/19 11:52:23;;;;;;;3.35;0.88;;;21.40;46.50;;;;;;4980984;28;20122;-60
2022/03/19 11:55:18;;;;;;;4.07;0.95;;;21.50;46.50;;;;;;4975052;28;20054;-60
2022/03/19 11:57:46;;;;;;;4.40;1.00;;;21.50;46.10;;;;;;4960091;28;20120;-60
2022/03/19 12:00:15;;;;;;;;;;;21.50;46.00;;;;;;4974537;28;20121;-60
2022/03/19 12:03:24;;;;;;;3.22;0.90;;;21.40;46.00;;;;;;4974863;28;19922;-60
2022/03/19 12:05:49;;;;;;;4.15;0.60;;;21.50;46.10;;;;;;4974634;28;20114;-60
2022/03/19 12:08:19;;;;;;;5.13;1.02;;;21.40;46.00;;;;;;4973870;28;20460;-60
2022/03/19 12:11:01;;;;;;;4.38;1.10;;;21.50;46.00;;;;;;4974138;28;20130;-61
2022/03/19 12:13:27;;;;;;;6.22;0.90;;;21.50;46.00;;;;;;4973490;28;20052;-60
2022/03/19 12:15:53;;;;;;;4.30;0.98;;;21.50;46.00;;;;;;4974866;28;20406;-61
2022/03/19 12:18:29;;;;;;;2.47;0.82;;;21.50;46.00;;;;;;4974592;28;20566;-60
2022/03/19 12:21:02;;;;;;;4.30;0.95;;;21.50;45.60;;;;;;4974099;28;20133;-59
2022/03/19 12:23:28;;;;;;;1.83;0.50;;;21.50;45.40;;;;;;4974497;28;20043;-59
2022/03/19 12:26:03;;;;;;;4.30;0.75;;;21.50;45.30;;;;;;4973260;28;20046;-59
2022/03/19 12:28:28;;;;;;;5.93;0.90;;;21.50;44.90;;;;;;4987375;28;20050;-59
2022/03/19 12:30:54;;;;;;;8.25;0.93;;;21.50;44.90;;;;;;5007540;28;20097;-60
2022/03/19 12:33:29;;;;;;;4.63;0.82;;;21.50;44.60;;;;;;4993569;28;20066;-59
2022/03/19 12:35:58;;;;;;;4.85;0.90;;;21.50;44.00;;;;;;4992256;28;20048;-59
2022/03/19 12:38:32;;;;;;;4.65;0.77;;;21.50;44.00;;;;;;4993437;28;20145;-59
2022/03/19 12:43:41;;;;;;;2.25;0.60;;;21.50;43.70;;;;;;4993143;28;20078;-59
2022/03/19 12:46:07;;;;;;;4.45;1.05;;;21.50;43.70;;;;;;4993240;28;20605;-60
2022/03/19 12:48:33;;;;;;;5.32;0.82;;;21.50;43.80;;;;;;4992657;28;20101;-60
2022/03/19 12:50:58;;;;;;;2.00;0.60;;;21.50;43.60;;;;;;4993714;28;20050;-59
2022/03/19 12:53:31;;;;;;;5.05;0.55;;;21.50;43.50;;;;;;4992999;28;20054;-59
2022/03/19 12:56:16;;;;;;;2.97;0.68;;;21.50;43.30;;;;;;4992689;28;20069;-59
2022/03/19 12:58:44;;;;;;;2.20;0.60;;;21.50;43.30;;;;;;4993272;28;20045;-59
2022/03/19 13:01:13;;;;;;;4.53;0.80;;;21.50;43.30;;;;;;4984609;28;20058;-59
2022/03/19 13:03:41;;;;;;;3.72;0.60;;;21.50;43.20;;;;;;4993010;28;20038;-60